createdAt,value
2022-12-15T00:02:18.316Z,97902.75
2022-12-15T00:05:03.836Z,97925.66
2022-12-15T00:07:49.121Z,97927.41
2022-12-15T00:10:34.833Z,97924.75
2022-12-15T00:13:20.258Z,97929.88
2022-12-15T00:16:06.226Z,97922.28
2022-12-15T00:18:51.767Z,97937.53
2022-12-15T00:21:37.211Z,97925.59
2022-12-15T00:24:22.464Z,97952.72
2022-12-15T00:27:07.714Z,97939.19
2022-12-15T00:29:53.036Z,97923.06
2022-12-15T00:32:38.544Z,97939.16
2022-12-15T00:35:24.460Z,97933.19
2022-12-15T00:38:10.358Z,97929.81
2022-12-15T00:40:37.394Z,97955.25
2022-12-15T00:43:04.309Z,97936.59
2022-12-15T00:45:49.832Z,97923.88
2022-12-15T00:48:16.809Z,97958.69
2022-12-15T00:50:52.554Z,97944.19
2022-12-15T00:53:42.102Z,97968.78
2022-12-15T00:56:27.979Z,97986.38
2022-12-15T00:59:13.517Z,97995.75
2022-12-15T01:01:59.063Z,98011.00
2022-12-15T01:04:44.911Z,98009.28
2022-12-15T01:07:30.590Z,98007.50
2022-12-15T01:10:16.277Z,98006.75
2022-12-15T01:13:01.778Z,98007.59
2022-12-15T01:15:47.282Z,97995.72
2022-12-15T01:18:32.800Z,97996.63
2022-12-15T01:21:01.787Z,98006.84
2022-12-15T01:23:28.961Z,97988.91
2022-12-15T01:25:56.330Z,97986.34
2022-12-15T01:28:23.691Z,98005.94
2022-12-15T01:30:50.680Z,97994.03
2022-12-15T01:33:17.864Z,97997.44
2022-12-15T01:35:44.988Z,98017.81
2022-12-15T01:38:11.950Z,97995.72
2022-12-15T01:40:50.344Z,98013.56
2022-12-15T01:43:19.744Z,98000.81
2022-12-15T01:45:57.203Z,98014.41
2022-12-15T01:48:42.628Z,98005.06
2022-12-15T01:51:20.523Z,98027.16
2022-12-15T01:54:16.536Z,98024.56
2022-12-15T01:56:48.358Z,98003.34
2022-12-15T01:59:19.919Z,98017.78
2022-12-15T02:01:49.727Z,98016.91
2022-12-15T02:04:21.014Z,98010.16
2022-12-15T02:06:48.061Z,98024.63
2022-12-15T02:09:15.656Z,98006.78
2022-12-15T02:11:51.629Z,98022.06
2022-12-15T02:14:32.511Z,98004.22
2022-12-15T02:17:09.927Z,98011.84
2022-12-15T02:20:01.736Z,98026.31
2022-12-15T02:22:47.669Z,98025.44
2022-12-15T02:25:43.853Z,98033.03
2022-12-15T02:28:17.222Z,98028.81
2022-12-15T02:31:10.116Z,98008.41
2022-12-15T02:33:40.985Z,98047.41
2022-12-15T02:36:18.749Z,98040.63
2022-12-15T02:38:45.821Z,98021.09
2022-12-15T02:41:37.257Z,98052.47
2022-12-15T02:44:35.667Z,98038.88
2022-12-15T02:47:24.577Z,98060.88
2022-12-15T02:50:11.805Z,98029.44
2022-12-15T02:53:12.115Z,98074.38
2022-12-15T02:56:30.223Z,98055.78
2022-12-15T02:59:00.074Z,98056.66
2022-12-15T03:01:29.856Z,98032.91
2022-12-15T03:03:57.085Z,98060.91
2022-12-15T03:06:24.969Z,98063.44
2022-12-15T03:08:51.893Z,98043.94
2022-12-15T03:11:18.920Z,98050.66
2022-12-15T03:13:45.939Z,98047.25
2022-12-15T03:16:13.005Z,98063.44
2022-12-15T03:18:40.169Z,98047.28
2022-12-15T03:21:07.163Z,98065.09
2022-12-15T03:23:34.485Z,98063.31
2022-12-15T03:26:01.568Z,98070.16
2022-12-15T03:28:28.980Z,98071.81
2022-12-15T03:30:56.620Z,98076.88
2022-12-15T03:33:23.521Z,98092.16
2022-12-15T03:35:51.373Z,98078.56
2022-12-15T03:38:18.793Z,98063.34
2022-12-15T03:40:45.726Z,98061.69
2022-12-15T03:43:12.722Z,98074.41
2022-12-15T03:45:39.688Z,98083.69
2022-12-15T03:48:06.741Z,98108.31
2022-12-15T03:50:33.712Z,98078.56
2022-12-15T03:53:02.021Z,98085.34
2022-12-15T03:55:29.168Z,98085.34
2022-12-15T03:57:56.356Z,98086.16
2022-12-15T04:00:24.765Z,98085.41
2022-12-15T04:02:52.043Z,98077.72
2022-12-15T04:05:29.572Z,98070.97
2022-12-15T04:07:57.184Z,98075.19
2022-12-15T04:10:28.650Z,98118.47
2022-12-15T04:13:01.395Z,98104.78
2022-12-15T04:15:28.601Z,98116.69
2022-12-15T04:17:55.583Z,98131.09
2022-12-15T04:20:22.837Z,98130.19
2022-12-15T04:22:50.458Z,98109.00
2022-12-15T04:25:37.850Z,98114.06
2022-12-15T04:28:23.757Z,98132.72
2022-12-15T04:31:17.426Z,98132.66
2022-12-15T04:34:05.094Z,98145.38
2022-12-15T04:36:50.435Z,98142.78
2022-12-15T04:39:35.792Z,98150.47
2022-12-15T04:42:21.685Z,98163.94
2022-12-15T04:45:07.094Z,98153.84
2022-12-15T04:47:52.694Z,98158.00
2022-12-15T04:50:38.143Z,98164.75
2022-12-15T04:53:28.291Z,98192.75
2022-12-15T04:56:18.410Z,98193.59
2022-12-15T04:59:04.878Z,98157.88
2022-12-15T05:01:51.102Z,98200.34
2022-12-15T05:04:36.701Z,98201.13
2022-12-15T05:07:22.275Z,98179.91
2022-12-15T05:10:14.409Z,98205.38
2022-12-15T05:13:00.939Z,98229.06
2022-12-15T05:15:46.529Z,98205.22
2022-12-15T05:18:31.909Z,98228.25
2022-12-15T05:21:17.778Z,98227.31
2022-12-15T05:24:03.281Z,98216.28
2022-12-15T05:26:52.697Z,98204.41
2022-12-15T05:29:39.798Z,98232.41
2022-12-15T05:32:07.884Z,98200.97
2022-12-15T05:34:35.781Z,98216.31
2022-12-15T05:37:03.553Z,98221.31
2022-12-15T05:39:30.608Z,98223.84
2022-12-15T05:41:57.712Z,98259.53
2022-12-15T05:44:25.475Z,98251.88
2022-12-15T05:46:52.610Z,98233.97
2022-12-15T05:49:19.613Z,98252.75
2022-12-15T05:51:47.521Z,98262.91
2022-12-15T05:54:18.600Z,98250.09
2022-12-15T05:56:45.691Z,98256.81
2022-12-15T05:59:12.756Z,98278.88
2022-12-15T06:01:40.115Z,98284.84
2022-12-15T06:04:07.646Z,98280.56
2022-12-15T06:06:34.691Z,98297.47
2022-12-15T06:09:01.667Z,98294.03
2022-12-15T06:11:28.672Z,98302.53
2022-12-15T06:13:55.947Z,98322.81
2022-12-15T06:16:23.522Z,98309.38
2022-12-15T06:18:53.147Z,98316.09
2022-12-15T06:21:23.879Z,98304.16
2022-12-15T06:23:50.844Z,98308.44
2022-12-15T06:26:25.626Z,98321.16
2022-12-15T06:28:52.669Z,98294.03
2022-12-15T06:31:22.901Z,98313.59
2022-12-15T06:33:53.515Z,98316.03
2022-12-15T06:36:26.579Z,98325.31
2022-12-15T06:38:53.732Z,98320.16
2022-12-15T06:41:21.327Z,98327.00
2022-12-15T06:43:52.243Z,98346.56
2022-12-15T06:46:19.627Z,98336.38
2022-12-15T06:48:46.934Z,98311.69
2022-12-15T06:51:17.237Z,98319.34
2022-12-15T06:53:52.830Z,98330.34
2022-12-15T06:56:28.853Z,98348.19
2022-12-15T06:58:59.525Z,98347.34
2022-12-15T07:01:26.615Z,98353.28
2022-12-15T07:03:53.986Z,98350.63
2022-12-15T07:06:21.240Z,98377.88
2022-12-15T07:08:56.737Z,98376.22
2022-12-15T07:11:23.978Z,98360.78
2022-12-15T07:13:51.632Z,98371.03
2022-12-15T07:16:18.804Z,98376.13
2022-12-15T07:18:45.876Z,98377.81
2022-12-15T07:21:12.865Z,98393.97
2022-12-15T07:23:54.115Z,98355.69
2022-12-15T07:26:22.179Z,98359.97
2022-12-15T07:28:49.124Z,98371.13
2022-12-15T07:31:16.243Z,98354.94
2022-12-15T07:33:43.247Z,98364.25
2022-12-15T07:36:11.184Z,98356.63
2022-12-15T07:38:38.177Z,98346.38
2022-12-15T07:41:06.392Z,98345.50
2022-12-15T07:43:33.918Z,98371.94
2022-12-15T07:46:01.518Z,98365.09
2022-12-15T07:48:29.377Z,98366.72
2022-12-15T07:51:07.482Z,98377.91
2022-12-15T07:53:37.174Z,98392.41
2022-12-15T07:56:08.014Z,98389.00
2022-12-15T07:58:36.370Z,98390.69
2022-12-15T08:01:07.928Z,98392.50
2022-12-15T08:03:35.994Z,98366.88
2022-12-15T08:06:05.564Z,98387.25
2022-12-15T08:08:33.545Z,98392.28
2022-12-15T08:11:05.005Z,98382.06
2022-12-15T08:14:01.452Z,98396.59
2022-12-15T08:16:20.228Z,98397.47
2022-12-15T08:18:47.352Z,98384.66
2022-12-15T08:21:14.807Z,98394.94
2022-12-15T08:23:41.851Z,98402.63
2022-12-15T08:26:13.841Z,98402.78
2022-12-15T08:28:40.986Z,98400.28
2022-12-15T08:31:09.766Z,98412.03
2022-12-15T08:33:36.876Z,98440.06
2022-12-15T08:36:08.565Z,98428.09
2022-12-15T08:38:36.141Z,98417.94
2022-12-15T08:41:13.765Z,98419.69
2022-12-15T08:43:47.659Z,98428.22
2022-12-15T08:46:27.418Z,98413.63
2022-12-15T08:48:54.663Z,98439.97
2022-12-15T08:51:21.942Z,98460.31
2022-12-15T08:53:49.490Z,98426.34
2022-12-15T08:56:18.668Z,98416.22
2022-12-15T08:58:46.458Z,98456.31
2022-12-15T09:01:22.816Z,98423.78
2022-12-15T09:03:51.477Z,98463.94
2022-12-15T09:06:22.833Z,98442.59
2022-12-15T09:08:50.381Z,98433.28
2022-12-15T09:11:17.878Z,98429.06
2022-12-15T09:13:45.108Z,98440.19
2022-12-15T09:16:13.916Z,98425.75
2022-12-15T09:18:48.685Z,98431.72
2022-12-15T09:21:15.810Z,98455.44
2022-12-15T09:23:42.825Z,98452.13
2022-12-15T09:26:11.534Z,98430.00
2022-12-15T09:28:38.765Z,98431.81
2022-12-15T09:31:17.089Z,98459.03
2022-12-15T09:33:44.431Z,98442.91
2022-12-15T09:36:11.533Z,98405.44
2022-12-15T09:38:38.537Z,98430.97
2022-12-15T09:41:14.080Z,98427.69
2022-12-15T09:44:02.314Z,98443.00
2022-12-15T09:47:05.943Z,98438.84
2022-12-15T09:49:38.649Z,98437.13
2022-12-15T09:52:11.078Z,98431.16
2022-12-15T09:54:38.566Z,98408.19
2022-12-15T09:57:08.964Z,98423.50
2022-12-15T09:59:35.952Z,98453.34
2022-12-15T10:02:38.050Z,98471.97
2022-12-15T10:05:29.814Z,98460.91
2022-12-15T10:08:07.970Z,98420.91
2022-12-15T10:11:00.165Z,98456.81
2022-12-15T10:13:56.027Z,98470.31
2022-12-15T10:16:44.108Z,98470.41
2022-12-15T10:19:41.154Z,98434.63
2022-12-15T10:22:50.661Z,98434.72
2022-12-15T10:26:01.457Z,98455.25
2022-12-15T10:29:32.283Z,98457.75
2022-12-15T10:33:04.245Z,98433.97
2022-12-15T10:35:41.999Z,98457.81
2022-12-15T10:38:38.010Z,98410.09
2022-12-15T10:41:21.684Z,98448.31
2022-12-15T10:44:05.842Z,98468.81
2022-12-15T10:46:56.924Z,98427.06
2022-12-15T10:50:45.255Z,98496.00
2022-12-15T10:57:27.719Z,98454.28
2022-12-15T11:00:30.288Z,98454.31
2022-12-15T11:03:04.188Z,98458.50
2022-12-15T11:05:43.954Z,98442.47
2022-12-15T11:08:33.897Z,98450.19
2022-12-15T11:14:51.241Z,98428.88
2022-12-15T11:17:54.187Z,98430.59
2022-12-15T11:21:02.658Z,98471.44
2022-12-15T11:25:34.066Z,98441.63
2022-12-15T11:44:07.711Z,98448.63
2022-12-15T11:51:39.443Z,98458.97
2022-12-15T11:55:12.029Z,98458.97
2022-12-15T11:58:16.287Z,98464.94
2022-12-15T12:01:27.036Z,98418.91
2022-12-15T12:08:06.385Z,98471.75
2022-12-15T12:11:19.232Z,98484.44
2022-12-15T12:14:11.666Z,98483.59
2022-12-15T12:16:47.612Z,98455.53
2022-12-15T12:19:30.401Z,98479.44
2022-12-15T12:23:00.266Z,98454.81
2022-12-15T12:29:19.539Z,98468.38
2022-12-15T12:38:07.468Z,98412.25
2022-12-15T12:41:25.011Z,98458.25
2022-12-15T12:44:02.754Z,98429.28
2022-12-15T12:47:02.125Z,98441.31
2022-12-15T12:49:57.045Z,98421.72
2022-12-15T12:53:21.083Z,98421.72
2022-12-15T13:03:52.435Z,98419.91
2022-12-15T13:15:42.349Z,98479.50
2022-12-15T13:18:00.556Z,98464.13
2022-12-15T13:26:38.106Z,98461.53
2022-12-15T13:28:50.377Z,98509.19
2022-12-15T13:32:02.345Z,98458.91
2022-12-15T13:35:17.254Z,98455.44
2022-12-15T13:38:28.577Z,98453.78
2022-12-15T13:41:28.231Z,98463.19
2022-12-15T13:44:05.830Z,98473.47
2022-12-15T13:46:37.393Z,98440.34
2022-12-15T13:49:30.025Z,98444.63
2022-12-15T13:52:19.349Z,98443.69
2022-12-15T13:55:12.059Z,98480.25
2022-12-15T13:57:48.615Z,98501.50
2022-12-15T14:00:28.850Z,98475.81
2022-12-15T14:03:07.266Z,98519.22
2022-12-15T14:05:35.727Z,98508.09
2022-12-15T14:08:09.135Z,98525.13
2022-12-15T14:10:55.924Z,98514.84
2022-12-15T14:13:26.257Z,98533.53
2022-12-15T14:16:23.397Z,98542.03
2022-12-15T14:19:14.429Z,98577.75
2022-12-15T14:22:25.139Z,98540.06
2022-12-15T14:25:09.525Z,98537.66
2022-12-15T14:27:42.797Z,98507.94
2022-12-15T14:30:22.003Z,98555.69
2022-12-15T14:32:52.792Z,98524.16
2022-12-15T14:35:49.542Z,98552.28
2022-12-15T14:38:36.347Z,98550.59
2022-12-15T14:41:05.316Z,98490.09
2022-12-15T14:44:36.632Z,98497.84
2022-12-15T14:46:40.672Z,98507.25
2022-12-15T14:49:11.891Z,98488.47
2022-12-15T14:51:51.581Z,98485.09
2022-12-15T14:54:39.764Z,98477.44
2022-12-15T14:57:09.895Z,98523.50
2022-12-15T14:59:40.892Z,98472.25
2022-12-15T15:02:23.118Z,98516.50
2022-12-15T15:03:10.164Z,98463.84
2022-12-15T15:05:13.291Z,98497.78
2022-12-15T15:07:42.055Z,98494.31
2022-12-15T15:10:24.776Z,98510.44
2022-12-15T15:12:56.779Z,98510.41
2022-12-15T15:15:27.055Z,98520.66
2022-12-15T15:17:58.384Z,98519.78
2022-12-15T15:20:38.069Z,98538.59
2022-12-15T15:23:21.035Z,98559.84
2022-12-15T15:25:57.925Z,98516.28
2022-12-15T15:28:30.658Z,98524.81
2022-12-15T15:31:08.112Z,98524.88
2022-12-15T15:33:45.498Z,98508.69
2022-12-15T15:36:15.587Z,98503.63
2022-12-15T15:39:20.474Z,98501.13
2022-12-15T15:42:15.225Z,98486.59
2022-12-15T15:44:43.477Z,98480.69
2022-12-15T15:47:28.738Z,98510.44
2022-12-15T15:49:58.419Z,98510.53
2022-12-15T15:52:25.629Z,98484.06
2022-12-15T15:54:52.991Z,98506.31
2022-12-15T15:57:20.106Z,98531.78
2022-12-15T15:59:47.342Z,98482.47
2022-12-15T16:02:14.753Z,98503.78
2022-12-15T16:04:42.552Z,98484.28
2022-12-15T16:07:22.903Z,98501.38
2022-12-15T16:09:50.330Z,98446.09
2022-12-15T16:12:53.584Z,98463.22
2022-12-15T16:15:23.233Z,98419.84
2022-12-15T16:17:50.336Z,98422.44
2022-12-15T16:20:18.353Z,98418.09
2022-12-15T16:22:47.511Z,98456.47
2022-12-15T16:25:50.836Z,98445.25
2022-12-15T16:28:20.624Z,98433.28
2022-12-15T16:30:47.884Z,98456.38
2022-12-15T16:33:15.138Z,98440.94
2022-12-15T16:35:42.455Z,98435.81
2022-12-15T16:38:36.042Z,98500.47
2022-12-15T16:41:07.501Z,98467.97
2022-12-15T16:43:39.195Z,98473.84
2022-12-15T16:46:07.534Z,98502.00
2022-12-15T16:48:35.197Z,98483.28
2022-12-15T16:51:02.837Z,98512.22
2022-12-15T16:53:34.520Z,98524.94
2022-12-15T16:56:03.463Z,98501.06
2022-12-15T16:58:30.910Z,98521.56
2022-12-15T17:01:01.338Z,98476.44
2022-12-15T17:03:50.219Z,98474.75
2022-12-15T17:06:28.009Z,98471.41
2022-12-15T17:36:38.592Z,98511.25
2022-12-15T17:39:31.698Z,98512.75
2022-12-15T17:42:12.734Z,98466.09
2022-12-15T18:12:13.318Z,98476.41
2022-12-15T18:14:45.719Z,98450.91
2022-12-15T18:17:24.948Z,98452.69
2022-12-15T18:20:16.968Z,98459.56
2022-12-15T18:29:49.482Z,98450.91
2022-12-15T18:34:43.462Z,98457.84
2022-12-15T18:40:53.209Z,98460.28
2022-12-15T18:43:34.160Z,98474.00
2022-12-15T18:47:28.755Z,98448.38
2022-12-15T18:54:05.135Z,98482.47
2022-12-15T19:03:58.556Z,98458.56
2022-12-15T19:13:31.374Z,98483.97
2022-12-15T19:16:03.079Z,98444.91
2022-12-15T19:18:53.048Z,98439.84
2022-12-15T19:21:54.649Z,98450.97
2022-12-15T19:24:46.761Z,98466.41
2022-12-15T19:27:20.626Z,98428.03
2022-12-15T19:29:50.499Z,98439.13
2022-12-15T19:32:20.907Z,98445.91
2022-12-15T19:34:48.005Z,98428.09
2022-12-15T19:37:33.541Z,98442.53
2022-12-15T19:40:03.519Z,98429.78
2022-12-15T19:42:32.286Z,98441.72
2022-12-15T19:44:59.976Z,98417.94
2022-12-15T19:47:27.052Z,98444.38
2022-12-15T19:49:55.114Z,98417.13
2022-12-15T19:52:22.455Z,98417.13
2022-12-15T19:54:50.128Z,98408.66
2022-12-15T19:57:17.888Z,98415.59
2022-12-15T19:59:45.101Z,98386.66
2022-12-15T20:02:21.613Z,98402.00
2022-12-15T20:04:48.875Z,98399.50
2022-12-15T20:07:22.220Z,98405.38
2022-12-15T20:09:49.208Z,98381.59
2022-12-15T20:12:17.417Z,98388.47
2022-12-15T20:14:45.322Z,98410.63
2022-12-15T20:17:12.421Z,98373.13
2022-12-15T20:19:44.266Z,98377.50
2022-12-15T20:22:14.118Z,98375.75
2022-12-15T20:24:41.337Z,98348.63
2022-12-15T20:27:28.335Z,98350.31
2022-12-15T20:29:55.515Z,98368.22
2022-12-15T20:32:22.566Z,98368.25
2022-12-15T20:34:52.067Z,98349.50
2022-12-15T20:37:22.308Z,98376.75
2022-12-15T20:39:53.959Z,98349.50
2022-12-15T20:42:24.156Z,98353.78
2022-12-15T20:44:51.249Z,98351.19
2022-12-15T20:47:25.617Z,98348.66
2022-12-15T20:49:53.127Z,98356.25
2022-12-15T20:52:22.952Z,98329.13
2022-12-15T20:54:50.759Z,98340.22
2022-12-15T20:57:17.868Z,98330.84
2022-12-15T20:59:45.014Z,98336.81
2022-12-15T21:02:23.115Z,98334.22
2022-12-15T21:04:54.892Z,98341.88
2022-12-15T21:07:21.979Z,98312.28
2022-12-15T21:09:49.057Z,98358.25
2022-12-15T21:12:22.952Z,98310.56
2022-12-15T21:14:50.125Z,98319.88
2022-12-15T21:17:28.885Z,98314.91
2022-12-15T21:19:55.996Z,98300.41
2022-12-15T21:22:24.499Z,98285.16
2022-12-15T21:24:58.240Z,98306.41
2022-12-15T21:27:27.740Z,98294.53
2022-12-15T21:29:57.766Z,98280.13
2022-12-15T21:32:29.488Z,98294.53
2022-12-15T21:34:56.551Z,98321.78
2022-12-15T21:37:29.754Z,98297.94
2022-12-15T21:40:03.978Z,98297.09
2022-12-15T21:42:34.121Z,98279.25
2022-12-15T21:45:01.204Z,98313.28
2022-12-15T21:47:51.908Z,98291.13
2022-12-15T21:50:19.476Z,98306.38
2022-12-15T21:52:46.533Z,98312.34
2022-12-15T21:55:20.911Z,98293.69
2022-12-15T21:57:48.050Z,98320.16
2022-12-15T22:00:17.397Z,98275.13
2022-12-15T22:06:33.377Z,98281.91
2022-12-15T22:09:19.063Z,98261.53
2022-12-15T22:11:51.948Z,98255.59
2022-12-15T22:14:58.380Z,98262.47
2022-12-15T22:17:32.590Z,98259.03
2022-12-15T22:20:04.469Z,98259.09
2022-12-15T22:22:32.027Z,98247.22
2022-12-15T22:24:59.266Z,98239.59
2022-12-15T22:27:26.445Z,98226.91
2022-12-15T22:29:53.591Z,98249.84
2022-12-15T22:32:23.099Z,98229.44
2022-12-15T22:34:54.590Z,98222.63
2022-12-15T22:37:21.587Z,98226.88
2022-12-15T22:39:50.824Z,98233.72
2022-12-15T22:42:18.798Z,98266.06
2022-12-15T22:44:53.389Z,98255.00
2022-12-15T22:47:27.564Z,98216.81
2022-12-15T22:49:57.310Z,98193.91
2022-12-15T22:52:25.456Z,98217.72
2022-12-15T22:54:57.013Z,98197.28
2022-12-15T22:57:35.136Z,98195.59
2022-12-15T23:00:07.575Z,98204.94
2022-12-15T23:02:42.909Z,98212.59
2022-12-15T23:05:22.615Z,98200.66
2022-12-15T23:08:01.099Z,98209.16
2022-12-15T23:10:49.919Z,98210.84
2022-12-15T23:13:27.798Z,98204.88
2022-12-15T23:16:25.455Z,98207.50
2022-12-15T23:19:22.301Z,98209.22
2022-12-15T23:21:52.484Z,98194.81
2022-12-15T23:24:32.751Z,98187.19
2022-12-15T23:27:08.656Z,98188.84
2022-12-15T23:29:57.052Z,98185.50
2022-12-15T23:32:42.361Z,98184.72
2022-12-15T23:35:22.464Z,98163.47
2022-12-15T23:38:15.120Z,98178.78
2022-12-15T23:40:52.561Z,98180.50
2022-12-15T23:43:28.094Z,98155.03
2022-12-15T23:49:51.110Z,98183.91
